Wednesday, January 28, 2015, 3:10 PM EST

KSEG, Selinsgrove Penn Valley Airport

Location: Selinsgrove, PA, United States Lat: 40.817
Local Time: 3:10 PM EST (20:10 GMT) Lon: -76.867
Time Zone: US/Eastern Elev: 449 ft

Show me the last for .
Show Decoded

2015-01-28 14:53 METAR KSEG 281953Z AUTO 33005KT 10SM CLR 01/M16 A3020 RMK AO2 SLP232 T00111161 =
2015-01-28 13:53 METAR KSEG 281853Z AUTO 33011KT 10SM CLR 00/M16 A3019 RMK AO2 SLP229 T00001156 =
2015-01-28 12:53 METAR KSEG 281753Z AUTO 30009KT 10SM CLR M02/M16 A3020 RMK AO2 SLP235 T10171161
                 11011 21094 58004 =
2015-01-28 11:53 METAR KSEG 281653Z AUTO 34006KT 10SM CLR M03/M17 A3022 RMK AO2 SLP239 T10281167
                 =
2015-01-28 10:53 METAR KSEG 281553Z AUTO 30009KT 10SM CLR M04/M16 A3023 RMK AO2 SLP244 T10441161
                 =
2015-01-28 09:53 METAR KSEG 281453Z AUTO 30011KT 10SM CLR M06/M16 A3022 RMK AO2 SLP240 T10611161
                 51020 =
2015-01-28 08:53 METAR KSEG 281353Z AUTO 30010KT 10SM CLR M08/M17 A3021 RMK AO2 SLP237 T10781167
                 =
2015-01-28 07:53 METAR KSEG 281253Z AUTO 30006KT 10SM CLR M09/M17 A3019 RMK AO2 SLP230 T10891172
                 =
2015-01-28 06:53 METAR KSEG 281153Z AUTO 29005KT 10SM CLR M09/M17 A3016 RMK AO2 SLP219 T10941167
                 11094 21167 52028 =
2015-01-28 05:53 METAR KSEG 281053Z AUTO 00000KT 10SM CLR M16/M18 A3013 RMK AO2 SLP210 T11561183
                 =
2015-01-28 04:53 METAR KSEG 280953Z AUTO 00000KT 10SM CLR M16/M19 A3010 RMK AO2 SLP201 T11611194
                 =
2015-01-28 03:53 METAR KSEG 280853Z AUTO 00000KT 10SM CLR M11/M17 A3007 RMK AO2 SLP190 T11111172
                 53009 =
2015-01-28 02:53 METAR KSEG 280753Z AUTO 00000KT 10SM CLR M13/M18 A3006 RMK AO2 SLP187 T11281178
                 =
2015-01-28 01:53 METAR KSEG 280653Z AUTO 00000KT 10SM CLR M13/M18 A3005 RMK AO2 SLP185 T11281183
                 =
2015-01-28 00:53 METAR KSEG 280553Z AUTO 00000KT 10SM CLR M09/M17 A3005 RMK AO2 SLP181 T10941172
                 11056 21106 51014 =
2015-01-27 23:53 METAR KSEG 280453Z AUTO 19003KT 10SM CLR M10/M17 A3004 RMK AO2 SLP179 T11001172
                 410061106 =
2015-01-27 22:53 METAR KSEG 280353Z AUTO 32009KT 10SM CLR M09/M17 A3003 RMK AO2 SLP174 T10891167
                 =
2015-01-27 21:53 METAR KSEG 280253Z AUTO 36005KT 10SM CLR M08/M16 A3000 RMK AO2 SLP167 T10831161
                 51037 =
2015-01-27 20:53 METAR KSEG 280153Z AUTO 36015G20KT 10SM CLR M08/M16 A2998 RMK AO2 SLP159
                 T10781156 =
2015-01-27 19:53 METAR KSEG 280053Z AUTO 02012KT 10SM CLR M07/M16 A2993 RMK AO2 SLP143 T10671156
                 =
2015-01-27 18:53 METAR KSEG 272353Z AUTO 03005KT 10SM CLR M06/M16 A2989 RMK AO2 SLP129 T10561161
                 11006 21056 53026 =
2015-01-27 17:53 METAR KSEG 272253Z AUTO 01012G19KT 10SM CLR M04/M16 A2987 RMK AO2 SLP120
                 T10391161 =
2015-01-27 16:53 METAR KSEG 272153Z AUTO 36011KT 10SM CLR M02/M16 A2984 RMK AO2 SLP110 T10221156
                 =
2015-01-27 15:53 METAR KSEG 272053Z AUTO 35013KT 10SM CLR M01/M13 A2982 RMK AO2 SLP102 T10061128
                 55004 =

Support USWX by starting your Amazon purchase here.